Time;durP1;ratioP1;P1;durP2;ratioP2;P2;SDS_P1;SDS_P2;PMS_P1;PMS_P2;Temp;Humidity;BMP_temperature;BMP_pressure;BME280_temperature;BME280_humidity;BME280_pressure;Samples;Min_cycle;Max_cycle;Signal;HPM_P1;HPM_P2
2023/12/28 11:39:33;;;;;;;9.32;1.52;;;12.50;99.90;;;;;;5055625;27;85537;-86
2023/12/28 11:42:09;;;;;;;9.35;1.63;;;13.60;99.90;;;;;;5038974;27;85164;-87
2023/12/28 11:44:47;;;;;;;11.15;1.38;;;13.50;99.90;;;;;;5029828;28;86133;-84
2023/12/28 11:47:14;;;;;;;10.95;1.63;;;13.30;99.90;;;;;;5025819;27;85843;-85
2023/12/28 11:49:48;;;;;;;11.23;1.40;;;13.20;99.90;;;;;;5030206;27;86621;-85
2023/12/28 11:52:29;;;;;;;15.88;1.92;;;13.10;99.90;;;;;;5044154;27;85455;-86
2023/12/28 11:55:00;;;;;;;14.25;1.65;;;13.00;99.90;;;;;;5069193;27;85781;-85
2023/12/28 11:57:27;;;;;;;9.98;1.63;;;13.00;99.90;;;;;;5054722;27;86312;-84
2023/12/28 12:00:07;;;;;;;10.68;1.73;;;12.90;99.90;;;;;;5065674;27;86587;-84
2023/12/28 12:02:34;;;;;;;10.95;1.95;;;12.90;99.90;;;;;;5070863;27;86414;-83
2023/12/28 12:05:04;;;;;;;9.93;1.75;;;12.80;99.90;;;;;;5038326;27;85894;-82
2023/12/28 12:07:40;;;;;;;14.30;1.83;;;12.80;99.90;;;;;;5033433;27;87877;-84
2023/12/28 12:10:06;;;;;;;14.20;2.20;;;12.70;99.90;;;;;;5032773;27;86537;-85
2023/12/28 12:12:32;;;;;;;14.15;1.98;;;12.60;99.90;;;;;;5041900;27;86065;-85
2023/12/28 12:15:00;;;;;;;10.57;2.10;;;12.60;99.90;;;;;;5042307;27;85910;-86
2023/12/28 12:17:27;;;;;;;10.90;1.40;;;12.60;99.90;;;;;;5065681;27;87222;-83
2023/12/28 12:20:14;;;;;;;11.75;1.35;;;12.60;99.90;;;;;;5051459;27;86741;-83
2023/12/28 12:22:56;;;;;;;10.68;2.33;;;12.50;99.90;;;;;;5065082;27;86454;-85
2023/12/28 12:25:29;;;;;;;14.40;1.75;;;12.50;99.90;;;;;;5063044;27;86482;-85
2023/12/28 12:27:55;;;;;;;13.55;1.85;;;12.50;99.90;;;;;;5079729;27;86845;-86
2023/12/28 12:30:26;;;;;;;17.30;2.05;;;12.50;99.90;;;;;;5068757;27;85744;-85
2023/12/28 12:32:56;;;;;;;12.20;1.95;;;12.50;99.90;;;;;;5048153;27;85927;-83
2023/12/28 12:35:23;;;;;;;10.27;1.88;;;12.50;99.90;;;;;;5030286;27;85999;-83
2023/12/28 12:37:52;;;;;;;11.30;1.42;;;12.50;99.90;;;;;;5036765;27;87084;-84
2023/12/28 12:40:23;;;;;;;17.13;2.20;;;12.50;99.90;;;;;;5081639;27;86104;-84
2023/12/28 12:42:56;;;;;;;9.75;1.30;;;12.50;99.90;;;;;;5025193;27;85406;-82
2023/12/28 12:45:27;;;;;;;8.98;1.70;;;12.50;99.90;;;;;;5031943;27;85877;-84
2023/12/28 12:47:57;;;;;;;17.65;1.88;;;12.50;99.90;;;;;;5039697;27;87004;-83
2023/12/28 12:50:37;;;;;;;10.13;1.48;;;12.50;99.90;;;;;;5056127;27;86540;-88
2023/12/28 12:53:08;;;;;;;13.23;2.33;;;12.50;99.90;;;;;;5053542;27;87369;-84
2023/12/28 12:55:45;;;;;;;9.10;1.85;;;12.50;99.90;;;;;;5052056;27;85643;-83
2023/12/28 12:58:13;;;;;;;13.25;2.00;;;12.50;99.90;;;;;;5033707;27;86048;-84
2023/12/28 13:00:39;;;;;;;15.15;2.13;;;12.40;99.90;;;;;;5052477;28;86100;-85
2023/12/28 13:03:09;;;;;;;10.15;2.30;;;12.40;99.90;;;;;;5030755;27;86019;-84
2023/12/28 13:05:38;;;;;;;15.32;2.35;;;12.40;99.90;;;;;;5024633;28;85881;-85
2023/12/28 13:08:10;;;;;;;16.70;2.13;;;12.40;99.90;;;;;;5031457;28;86130;-84
2023/12/28 13:10:36;;;;;;;15.20;2.13;;;12.40;99.90;;;;;;5030006;27;85670;-84
2023/12/28 13:13:07;;;;;;;15.27;2.13;;;12.40;99.90;;;;;;5061870;27;85575;-83
2023/12/28 13:15:34;;;;;;;14.75;2.63;;;12.40;99.90;;;;;;5029406;28;86080;-86
2023/12/28 13:18:04;;;;;;;11.20;1.75;;;12.40;99.90;;;;;;5027983;28;86865;-86
2023/12/28 13:20:32;;;;;;;11.48;2.13;;;12.40;99.90;;;;;;5013588;28;86301;-86
2023/12/28 13:23:06;;;;;;;16.23;2.42;;;12.40;99.90;;;;;;5057464;27;85688;-86
2023/12/28 13:25:42;;;;;;;11.93;1.63;;;12.40;99.90;;;;;;5055214;27;86631;-86
2023/12/28 13:32:35;;;;;;;14.63;1.73;;;12.40;99.90;;;;;;5036801;27;85793;-87
2023/12/28 13:35:52;;;;;;;11.93;1.50;;;12.40;99.90;;;;;;4964610;28;86326;-87
2023/12/28 13:38:19;;;;;;;11.00;1.77;;;12.40;99.90;;;;;;5027545;28;85952;-84
2023/12/28 13:40:45;;;;;;;8.75;1.98;;;12.40;99.90;;;;;;5005499;28;87372;-86
2023/12/28 13:43:12;;;;;;;12.43;2.03;;;12.30;99.90;;;;;;5000111;27;86310;-86
2023/12/28 13:45:38;;;;;;;14.52;2.08;;;12.30;99.90;;;;;;5012748;28;86457;-85
2023/12/28 13:48:08;;;;;;;18.92;1.95;;;12.30;99.90;;;;;;5046534;27;85329;-86
2023/12/28 13:50:34;;;;;;;17.63;1.70;;;12.30;99.90;;;;;;5027466;28;86936;-86
2023/12/28 13:53:00;;;;;;;13.07;2.25;;;12.20;99.90;;;;;;5051752;28;87381;-85
2023/12/28 13:55:28;;;;;;;15.73;1.58;;;12.20;99.90;;;;;;5017266;28;85684;-86
2023/12/28 13:57:55;;;;;;;15.10;2.55;;;12.20;99.90;;;;;;5035513;27;85710;-84
2023/12/28 14:00:26;;;;;;;15.05;1.92;;;12.20;99.90;;;;;;5018962;28;85771;-86
2023/12/28 14:02:52;;;;;;;13.07;1.83;;;12.10;99.90;;;;;;5034593;28;87085;-84
2023/12/28 14:05:23;;;;;;;9.68;1.52;;;12.10;99.90;;;;;;5029199;28;85754;-85
2023/12/28 14:07:51;;;;;;;10.00;2.43;;;12.10;99.90;;;;;;5034680;27;85710;-84
2023/12/28 14:10:17;;;;;;;16.10;2.05;;;12.10;99.90;;;;;;5030139;27;85904;-84
2023/12/28 14:13:00;;;;;;;10.63;1.25;;;12.00;99.90;;;;;;5048931;28;85820;-85
2023/12/28 14:15:26;;;;;;;11.60;1.43;;;12.00;99.90;;;;;;5019624;28;86456;-85
2023/12/28 14:17:52;;;;;;;9.23;2.22;;;12.00;99.90;;;;;;5022370;27;85620;-85
2023/12/28 14:20:18;;;;;;;12.68;1.45;;;12.00;99.90;;;;;;5042516;27;88172;-85
2023/12/28 14:22:44;;;;;;;14.27;1.85;;;11.90;99.90;;;;;;5025344;28;86496;-85
2023/12/28 14:25:12;;;;;;;7.70;1.30;;;11.90;99.90;;;;;;5036053;28;85573;-85
2023/12/28 14:27:38;;;;;;;13.00;1.23;;;11.80;99.90;;;;;;5036868;28;85706;-86
2023/12/28 14:30:14;;;;;;;14.57;1.45;;;11.80;99.90;;;;;;5054437;27;87728;-85
2023/12/28 14:32:40;;;;;;;12.10;1.70;;;11.80;99.90;;;;;;5642129;22;87201;-87
2023/12/28 14:40:18;;;;;;;11.38;2.13;;;11.80;99.90;;;;;;5614496;22;87399;-84
2023/12/28 14:42:49;;;;;;;9.65;1.38;;;11.70;99.90;;;;;;4980604;28;85896;-87
2023/12/28 14:45:19;;;;;;;10.40;2.17;;;11.70;99.90;;;;;;4992164;28;85804;-87
2023/12/28 14:47:45;;;;;;;13.65;1.50;;;11.70;99.90;;;;;;4968797;28;85643;-86
2023/12/28 14:50:28;;;;;;;11.45;1.50;;;11.70;99.90;;;;;;4997874;28;86463;-87
2023/12/28 14:53:16;;;;;;;9.40;2.05;;;11.60;99.90;;;;;;4928460;28;90387;-85
2023/12/28 14:55:42;;;;;;;7.78;1.48;;;11.60;99.90;;;;;;4983164;28;86331;-83
2023/12/28 16:00:34;;;;;;;6.07;0.95;;;10.80;99.90;;;;;;5726690;22;87315;-85
2023/12/28 16:02:59;;;;;;;8.65;1.25;;;10.80;99.90;;;;;;4996961;28;85679;-86
2023/12/28 16:05:25;;;;;;;27.80;2.33;;;10.80;99.90;;;;;;5013066;28;86052;-87
2023/12/28 16:07:52;;;;;;;12.55;1.80;;;10.80;99.90;;;;;;4999739;28;85690;-85
2023/12/28 16:28:52;;;;;;;4.78;0.90;;;10.70;99.90;;;;;;5224954;22;87315;-87
2023/12/28 16:31:19;;;;;;;14.30;1.50;;;10.70;99.90;;;;;;4997578;28;85622;-86
2023/12/28 16:33:58;;;;;;;9.52;1.38;;;10.60;99.90;;;;;;4994742;28;86220;-86
2023/12/28 16:36:24;;;;;;;9.10;1.23;;;10.60;99.90;;;;;;5008325;28;86247;-85
2023/12/28 16:38:53;;;;;;;9.18;1.00;;;10.60;99.90;;;;;;4989582;28;87283;-84
2023/12/28 16:43:58;;;;;;;11.35;1.40;;;10.60;99.90;;;;;;5970916;22;86416;-84
2023/12/28 16:46:24;;;;;;;8.50;1.45;;;10.60;99.90;;;;;;5014662;27;85714;-86
2023/12/28 16:48:51;;;;;;;8.70;1.50;;;10.50;99.90;;;;;;5016287;28;87106;-87
2023/12/28 16:51:17;;;;;;;11.73;1.73;;;10.60;99.90;;;;;;5016995;28;86485;-87
2023/12/28 16:53:44;;;;;;;7.50;1.25;;;10.50;99.90;;;;;;5012684;28;85645;-87
2023/12/28 16:56:15;;;;;;;8.45;1.35;;;10.50;99.90;;;;;;5016192;28;85552;-87
2023/12/28 16:58:44;;;;;;;5.50;1.00;;;10.50;99.90;;;;;;5017332;28;89656;-87
2023/12/28 17:01:10;;;;;;;7.30;1.17;;;10.40;99.90;;;;;;5017730;28;85777;-87
2023/12/28 17:03:39;;;;;;;8.40;1.65;;;10.40;99.90;;;;;;4999517;28;85647;-87
2023/12/28 17:16:30;;;;;;;16.65;2.85;;;10.30;99.90;;;;;;5759678;22;87132;-87
2023/12/28 17:24:42;;;;;;;10.65;1.73;;;10.20;99.90;;;;;;5919228;22;87130;-86
2023/12/28 17:27:15;;;;;;;8.98;1.50;;;10.20;99.90;;;;;;5000211;28;86738;-87
2023/12/28 17:29:46;;;;;;;8.60;1.38;;;10.20;99.90;;;;;;5015609;28;86937;-86
2023/12/28 17:32:14;;;;;;;5.70;1.23;;;10.20;99.90;;;;;;5002801;28;86371;-86
2023/12/28 17:34:45;;;;;;;15.00;1.85;;;10.20;99.90;;;;;;4991259;28;86082;-86
2023/12/28 17:37:40;;;;;;;16.83;1.90;;;10.20;99.90;;;;;;5007141;28;87701;-86
2023/12/28 17:40:07;;;;;;;7.15;1.45;;;10.10;99.90;;;;;;5010418;28;85977;-85
2023/12/28 17:42:38;;;;;;;11.18;2.08;;;10.10;99.90;;;;;;5006522;28;85037;-86
2023/12/28 17:45:12;;;;;;;8.38;1.67;;;10.10;99.90;;;;;;4983195;28;85455;-86
2023/12/28 17:47:57;;;;;;;5.63;2.08;;;10.10;99.90;;;;;;5001544;28;88363;-86
2023/12/28 17:50:28;;;;;;;8.50;1.90;;;10.10;99.90;;;;;;5008563;28;86743;-85
2023/12/28 17:53:17;;;;;;;5.00;1.65;;;10.20;99.90;;;;;;4984557;28;85338;-86
2023/12/28 17:55:43;;;;;;;9.98;1.95;;;10.20;99.90;;;;;;4977789;28;85941;-86
2023/12/28 17:58:11;;;;;;;9.68;1.50;;;10.20;99.90;;;;;;5008081;28;85678;-84
2023/12/28 18:00:37;;;;;;;7.07;2.45;;;10.30;99.90;;;;;;5009167;28;87720;-86
2023/12/28 18:52:57;;;;;;;6.10;1.63;;;10.30;99.90;;;;;;5277676;22;87424;-82
2023/12/28 19:07:52;;;;;;;6.68;1.35;;;10.40;99.90;;;;;;5943788;22;87653;-84
2023/12/28 19:10:19;;;;;;;5.82;1.50;;;10.40;99.90;;;;;;4962771;28;86386;-82
2023/12/28 19:12:52;;;;;;;6.72;1.73;;;10.50;99.90;;;;;;4964529;28;87440;-84
2023/12/28 19:15:19;;;;;;;4.70;1.30;;;10.50;99.90;;;;;;4962195;28;88076;-82
2023/12/28 19:17:47;;;;;;;6.72;1.65;;;10.50;99.90;;;;;;4957468;28;85822;-81
2023/12/28 19:20:13;;;;;;;6.00;1.48;;;10.60;99.90;;;;;;4948905;28;86290;-81
2023/12/28 19:51:19;;;;;;;6.63;1.33;;;10.60;99.90;;;;;;5455835;22;87521;-81
2023/12/28 19:56:22;;;;;;;8.63;1.30;;;10.60;99.90;;;;;;5241775;22;86716;-81
2023/12/28 19:58:55;;;;;;;10.37;1.40;;;10.60;99.90;;;;;;4985304;28;86617;-83
2023/12/28 20:02:01;;;;;;;11.70;1.92;;;10.60;99.90;;;;;;4985888;28;85798;-82
2023/12/28 20:04:28;;;;;;;13.20;1.70;;;10.70;99.90;;;;;;4987281;28;86377;-81
2023/12/28 20:07:06;;;;;;;11.40;2.10;;;10.70;99.90;;;;;;4978140;28;87029;-81
2023/12/28 20:09:32;;;;;;;6.32;1.40;;;10.70;99.90;;;;;;4967965;28;85715;-81
2023/12/28 20:12:04;;;;;;;9.57;1.48;;;10.70;99.90;;;;;;4988339;28;86491;-83
2023/12/28 20:14:30;;;;;;;13.15;2.03;;;10.70;99.90;;;;;;4980555;28;86384;-81
2023/12/28 20:17:08;;;;;;;11.90;1.40;;;10.70;99.90;;;;;;5000208;28;86288;-86
2023/12/28 20:19:35;;;;;;;13.93;2.25;;;10.70;99.90;;;;;;4993093;28;85902;-86
2023/12/28 20:45:20;;;;;;;15.05;1.90;;;10.70;99.90;;;;;;5864323;22;87481;-83
2023/12/28 20:47:47;;;;;;;10.40;2.55;;;10.70;99.90;;;;;;4975507;28;86980;-81
2023/12/28 20:50:14;;;;;;;9.20;1.50;;;10.70;99.90;;;;;;4993163;28;86903;-81
2023/12/28 20:52:40;;;;;;;12.45;1.40;;;10.70;99.90;;;;;;4992807;28;85788;-81
2023/12/28 20:55:09;;;;;;;7.45;1.55;;;10.60;99.90;;;;;;4953909;28;86925;-84
2023/12/28 20:57:45;;;;;;;10.75;2.13;;;10.70;99.90;;;;;;4989812;28;86559;-83
2023/12/28 21:00:17;;;;;;;6.82;1.55;;;10.70;99.90;;;;;;5000758;28;86270;-85
2023/12/28 21:02:45;;;;;;;12.20;1.35;;;10.70;99.90;;;;;;5004715;28;85394;-86
2023/12/28 21:06:01;;;;;;;6.35;1.40;;;10.70;99.90;;;;;;5009822;28;85542;-84
2023/12/28 21:08:30;;;;;;;8.75;1.33;;;10.70;99.90;;;;;;5015821;28;85977;-84
2023/12/28 21:10:57;;;;;;;5.30;1.20;;;10.60;99.90;;;;;;5005738;28;85626;-82
2023/12/28 21:13:26;;;;;;;16.67;1.85;;;10.70;99.90;;;;;;5010988;28;86086;-80
2023/12/28 21:18:35;;;;;;;12.10;1.50;;;10.70;99.90;;;;;;5753054;22;87827;-82
2023/12/28 21:21:03;;;;;;;8.27;2.38;;;10.70;99.90;;;;;;5002171;28;85993;-81
2023/12/28 21:23:31;;;;;;;9.30;1.25;;;10.70;99.90;;;;;;5012670;28;86522;-80
2023/12/28 21:41:34;;;;;;;11.15;1.45;;;10.80;99.90;;;;;;5975751;22;86976;-85
2023/12/28 21:44:03;;;;;;;8.63;1.45;;;10.80;99.90;;;;;;4957564;28;86008;-85
2023/12/28 21:46:30;;;;;;;9.05;1.48;;;10.80;99.90;;;;;;4952566;28;87143;-85
2023/12/28 21:48:57;;;;;;;10.88;2.97;;;10.80;99.90;;;;;;4957316;28;87258;-84
2023/12/28 21:51:28;;;;;;;8.48;1.27;;;10.80;99.90;;;;;;4956855;28;85761;-85
2023/12/28 21:53:55;;;;;;;10.18;1.27;;;10.90;99.90;;;;;;4965824;28;85800;-83
2023/12/28 21:56:22;;;;;;;9.63;1.17;;;10.90;99.90;;;;;;4949773;28;89152;-83
2023/12/28 21:58:49;;;;;;;10.90;1.40;;;10.90;99.90;;;;;;4958412;28;87203;-84
2023/12/28 22:01:15;;;;;;;9.35;1.42;;;10.90;99.90;;;;;;4941328;28;86729;-84
2023/12/28 22:03:41;;;;;;;13.73;1.63;;;10.90;99.90;;;;;;4931980;28;86865;-85
2023/12/28 22:06:08;;;;;;;6.75;1.05;;;10.90;99.90;;;;;;4954336;28;86422;-83
2023/12/28 22:08:34;;;;;;;6.68;1.08;;;10.90;99.90;;;;;;4951383;28;85954;-83
2023/12/28 22:11:00;;;;;;;6.75;1.52;;;10.90;99.90;;;;;;4957012;28;86242;-84
2023/12/28 22:13:32;;;;;;;9.67;1.37;;;10.90;99.90;;;;;;4958789;28;85771;-84
2023/12/28 22:15:59;;;;;;;8.27;1.83;;;10.90;99.90;;;;;;4955984;28;87314;-84
2023/12/28 22:18:27;;;;;;;14.23;1.55;;;10.90;99.90;;;;;;4957112;28;86624;-84
2023/12/28 22:20:59;;;;;;;6.95;1.25;;;10.90;99.90;;;;;;4950710;28;85461;-83
2023/12/28 22:23:25;;;;;;;5.47;1.02;;;10.80;99.90;;;;;;4958496;28;85871;-83
2023/12/28 22:25:55;;;;;;;10.85;1.27;;;10.90;99.90;;;;;;4938988;28;86196;-84
2023/12/28 22:28:22;;;;;;;14.82;2.20;;;10.80;99.90;;;;;;4957574;28;86078;-84
2023/12/28 22:30:48;;;;;;;7.43;1.20;;;10.80;99.90;;;;;;4951175;28;86079;-83
2023/12/28 22:33:13;;;;;;;9.50;0.95;;;10.80;99.90;;;;;;4958365;28;85715;-84
2023/12/28 22:35:43;;;;;;;9.82;1.33;;;10.70;99.90;;;;;;4957105;28;87006;-83
2023/12/28 22:38:09;;;;;;;8.20;1.42;;;10.70;99.90;;;;;;4942132;28;86047;-83
2023/12/28 22:40:35;;;;;;;5.45;1.20;;;10.70;99.90;;;;;;4956173;28;86141;-84
2023/12/28 22:43:02;;;;;;;8.85;1.38;;;10.70;99.90;;;;;;4938646;28;86124;-84
2023/12/28 22:45:50;;;;;;;6.55;1.17;;;10.60;99.90;;;;;;4957067;28;86411;-82
2023/12/28 22:48:25;;;;;;;13.38;1.90;;;10.60;99.90;;;;;;4948557;28;86228;-84
2023/12/28 22:50:50;;;;;;;10.88;1.30;;;10.60;99.90;;;;;;4939072;28;86167;-82
2023/12/28 22:53:16;;;;;;;8.75;1.65;;;10.60;99.90;;;;;;4939673;28;86173;-82
2023/12/28 22:55:42;;;;;;;10.32;1.50;;;10.60;99.90;;;;;;4952388;28;86498;-83
2023/12/28 22:58:08;;;;;;;9.02;1.48;;;10.60;99.90;;;;;;4953768;28;88851;-84
2023/12/28 23:00:40;;;;;;;9.23;1.40;;;10.60;99.90;;;;;;4954738;28;85765;-84
2023/12/28 23:03:07;;;;;;;5.07;1.17;;;10.70;99.90;;;;;;4957789;28;85698;-84
2023/12/28 23:05:34;;;;;;;6.10;1.05;;;10.70;99.90;;;;;;4943312;28;86301;-83
2023/12/28 23:08:06;;;;;;;7.30;1.20;;;10.70;99.90;;;;;;4951948;28;86975;-84
2023/12/28 23:10:32;;;;;;;3.75;0.90;;;10.70;99.90;;;;;;4955459;28;86544;-83
2023/12/28 23:13:00;;;;;;;7.57;1.38;;;10.70;99.90;;;;;;4956958;28;85950;-84
2023/12/28 23:15:28;;;;;;;4.93;1.17;;;10.70;99.90;;;;;;4955781;28;86005;-84
2023/12/28 23:17:58;;;;;;;7.72;1.58;;;10.70;99.90;;;;;;4941553;28;86163;-84
2023/12/28 23:20:28;;;;;;;5.47;1.20;;;10.80;99.90;;;;;;4963852;28;85868;-85
2023/12/28 23:22:57;;;;;;;10.07;1.35;;;10.80;99.90;;;;;;4958962;28;86923;-85
2023/12/28 23:25:22;;;;;;;3.55;0.90;;;10.80;99.90;;;;;;4956174;28;87721;-84
2023/12/28 23:27:52;;;;;;;9.93;1.73;;;10.80;99.90;;;;;;4951505;28;87697;-84
2023/12/28 23:30:38;;;;;;;8.43;1.20;;;10.80;99.90;;;;;;4947075;28;86013;-84
2023/12/28 23:33:05;;;;;;;9.43;1.33;;;10.80;99.90;;;;;;4938664;28;85439;-84
2023/12/28 23:35:32;;;;;;;13.82;1.20;;;10.80;99.90;;;;;;4955869;28;86680;-84
2023/12/28 23:38:06;;;;;;;7.45;1.27;;;10.80;99.90;;;;;;4955899;28;86026;-84
2023/12/28 23:40:32;;;;;;;12.35;1.35;;;10.80;99.90;;;;;;4955150;28;86511;-85
2023/12/28 23:43:02;;;;;;;9.35;1.40;;;10.80;99.90;;;;;;4953175;28;86155;-84
2023/12/28 23:45:29;;;;;;;5.68;1.02;;;10.80;99.90;;;;;;4952378;28;86189;-84
2023/12/28 23:47:55;;;;;;;11.00;1.58;;;10.80;99.90;;;;;;4956214;28;86277;-84
2023/12/28 23:50:21;;;;;;;10.90;1.45;;;10.80;99.90;;;;;;4954721;28;86156;-84
2023/12/28 23:52:48;;;;;;;7.47;1.08;;;10.80;99.90;;;;;;4956134;28;86175;-85
2023/12/28 23:55:15;;;;;;;7.00;1.25;;;10.80;99.90;;;;;;4956303;28;86082;-84
2023/12/28 23:57:41;;;;;;;10.82;1.63;;;10.80;99.90;;;;;;4957709;28;86211;-84
